Theologos P . — SZNB — position and weather

sailwx.info

Track history (hours):
 
Tides and Currents Weather Stations Pressure Air Temp Water Temp Dewpoint Dewpoint Depression Visibility Wind Speed Wind Dir Waves Ship Positions

Theologos P .

Last reported at 2017-May-29 18:30 UTC. Time now 2017-May-29 18:54 UTC.
Position N 37°32' E 025°09'.

Length 118 m; draft 4.4 m.

Type: Passenger vessel. MMSI: 240521000.

Date/timePositionNaut miles runAvg speedWind from/ knotsBaromVisibWave heightAir tempDewpointWater temp
2017-May-29 18:30N 37°32' E 025°09'713.8
2017-May-29 18:00N 37°36' E 025°02'1118.4
2017-May-29 17:24N 37°44' E 024°52'3615.1
2017-May-29 15:02N 37°59' E 024°11'218.3
2017-May-29 14:57N 37°59' E 024°09'7 1.2
2017-May-29 09:17N 38°01' E 024°01'413.6
2017-May-29 09:00N 38°01' E 024°05'1019.1
2017-May-29 08:30N 37°57' E 024°17'2914.7
2017-May-29 06:30N 37°45' E 024°51'919.1
2017-May-29 06:00N 37°38' E 024°59'918.7
2017-May-29 05:30N 37°32' E 025°08'3 6.9
2017-May-29 05:00N 37°30' E 025°12'713.6
2017-May-29 04:30N 37°28' E 025°20'0 0.0
2017-May-29 04:00N 37°28' E 025°20'0 0.0
2017-May-29 03:30N 37°28' E 025°20'0 0.0
2017-May-29 03:00N 37°28' E 025°20'0 0.0
2017-May-29 02:30N 37°28' E 025°20'0 0.0
2017-May-29 02:00N 37°28' E 025°20'0 0.0
2017-May-29 01:30N 37°28' E 025°20'0 0.0
2017-May-29 01:00N 37°28' E 025°20'0 0.0
2017-May-29 00:30N 37°28' E 025°20'0 0.0
2017-May-29 00:00N 37°28' E 025°20'0 0.0
2017-May-28 23:30N 37°28' E 025°20'0 0.0
2017-May-28 23:00N 37°28' E 025°20'0 0.0
2017-May-28 22:30N 37°28' E 025°20'0 0.0
2017-May-28 22:00N 37°28' E 025°20'0 0.0
2017-May-28 21:30N 37°28' E 025°20'0 0.0
2017-May-28 21:00N 37°28' E 025°20'0 0.0
2017-May-28 20:30N 37°28' E 025°20'0 0.0
2017-May-28 20:00N 37°28' E 025°20'2 4.1
2017-May-28 19:31N 37°28' E 025°17'714.6
2017-May-28 19:00N 37°32' E 025°09'612.3
2017-May-28 18:31N 37°35' E 025°03'1118.7
2017-May-28 17:57N 37°43' E 024°53'3915.5
2017-May-28 15:25N 37°60' E 024°08'1 1.0
2017-May-28 14:00N 37°59' E 024°10'1219.2
2017-May-28 13:23N 37°56' E 024°24'2313.4
2017-May-28 11:38N 37°45' E 024°51'319.1
2017-May-28 11:30N 37°43' E 024°53'918.7
2017-May-28 11:01N 37°37' E 025°01'815.5
2017-May-28 10:30N 37°32' E 025°09'611.5
2017-May-28 10:01N 37°29' E 025°15'4 7.1
2017-May-28 09:30N 37°28' E 025°20'0 0.0
2017-May-28 09:00N 37°28' E 025°20'0 0.0
2017-May-28 08:30N 37°28' E 025°20'0 0.0
2017-May-28 08:00N 37°28' E 025°20'0 0.0
2017-May-28 07:30N 37°28' E 025°20'0 0.0
2017-May-28 07:00N 37°28' E 025°20'0 0.0
2017-May-28 06:30N 37°28' E 025°20'0 0.0
2017-May-28 06:00N 37°28' E 025°20'0 0.0
2017-May-28 05:30N 37°28' E 025°20'0 0.0
2017-May-28 05:00N 37°28' E 025°20'0 0.0
2017-May-28 04:30N 37°28' E 025°20'0 0.0
2017-May-28 04:00N 37°28' E 025°20'0 0.0
2017-May-28 03:30N 37°28' E 025°20'0 0.0
2017-May-28 03:00N 37°28' E 025°20'0 0.0
2017-May-28 02:30N 37°28' E 025°20'0 0.0
2017-May-28 02:00N 37°28' E 025°20'0 0.0
2017-May-28 01:30N 37°28' E 025°20'0 0.0
2017-May-28 01:00N 37°28' E 025°20'0 0.0
2017-May-28 00:30N 37°28' E 025°20'0 0.0
2017-May-28 00:00N 37°28' E 025°20'0 0.0
2017-May-27 23:30N 37°28' E 025°20'0 0.0
2017-May-27 23:00N 37°28' E 025°20'0 0.0
2017-May-27 22:30N 37°28' E 025°20'0 0.0
2017-May-27 22:00N 37°28' E 025°20'0 0.0
2017-May-27 21:30N 37°28' E 025°20'0 0.0
2017-May-27 21:00N 37°28' E 025°20'0 0.0
2017-May-27 20:30N 37°28' E 025°20'0 0.0
2017-May-27 20:00N 37°28' E 025°20'0 0.0
2017-May-27 19:30N 37°28' E 025°20'2 5.0
2017-May-27 19:01N 37°29' E 025°17'713.6
2017-May-27 18:30N 37°32' E 025°09'612.8
2017-May-27 18:00N 37°36' E 025°02'1018.9
2017-May-27 17:28N 37°43' E 024°53'3715.0
2017-May-27 15:00N 37°59' E 024°11'9 6.8
2017-May-27 13:43N 38°01' E 024°01'416.4
2017-May-27 13:30N 38°00' E 024°05'918.9
2017-May-27 13:00N 37°57' E 024°17'3014.2
2017-May-27 10:54N 37°45' E 024°51'919.0
2017-May-27 10:25N 37°38' E 024°59'818.8
2017-May-27 10:00N 37°33' E 025°06'4 7.8
2017-May-27 09:31N 37°31' E 025°10'816.0
2017-May-27 09:00N 37°28' E 025°20'0 0.0
2017-May-27 08:30N 37°28' E 025°20'0 0.0
2017-May-27 08:00N 37°28' E 025°20'0 0.0
2017-May-27 07:30N 37°28' E 025°20'0 0.0
2017-May-27 07:00N 37°28' E 025°20'0 0.0
2017-May-27 06:31N 37°28' E 025°20'0 0.0
2017-May-27 06:00N 37°28' E 025°20'0 0.0
2017-May-27 05:30N 37°28' E 025°20'0 0.0
2017-May-27 05:00N 37°28' E 025°20'0 0.0
2017-May-27 04:30N 37°28' E 025°20'0 0.0
2017-May-27 04:01N 37°28' E 025°20'0 0.0
2017-May-27 03:31N 37°28' E 025°20'0 0.0
2017-May-27 03:00N 37°28' E 025°20'0 0.0
2017-May-27 02:30N 37°28' E 025°20'0 0.0
2017-May-27 02:00N 37°28' E 025°20'0 0.0
2017-May-27 01:30N 37°28' E 025°20'0 0.0
2017-May-27 01:00N 37°28' E 025°20'0 0.0
2017-May-27 00:30N 37°28' E 025°20'0 0.0
2017-May-27 00:01N 37°28' E 025°20'0 0.0
2017-May-26 23:30N 37°28' E 025°20'0 0.0
2017-May-26 23:00N 37°28' E 025°20'0 0.0
2017-May-26 22:30N 37°28' E 025°20'0 0.0
2017-May-26 22:00N 37°28' E 025°20'0 0.0
2017-May-26 21:30N 37°28' E 025°20'0 0.0
2017-May-26 21:01N 37°28' E 025°20'0 0.0
2017-May-26 20:30N 37°28' E 025°20'0 0.0
2017-May-26 20:00N 37°28' E 025°20'0 0.0
2017-May-26 19:30N 37°28' E 025°20'3 6.2
2017-May-26 19:00N 37°29' E 025°16'612.4
2017-May-26 18:30N 37°32' E 025°09'713.9
2017-May-26 18:01N 37°36' E 025°02'1118.4
2017-May-26 17:23N 37°44' E 024°52'3815.2
2017-May-26 14:55N 37°60' E 024°09'5 0.8
2017-May-26 09:04N 38°01' E 024°03'119.3
2017-May-26 09:00N 38°01' E 024°04'1019.3
2017-May-26 08:29N 37°58' E 024°17'3014.6
2017-May-26 06:27N 37°45' E 024°51'919.8
2017-May-26 06:00N 37°39' E 024°59'1019.5
2017-May-26 05:30N 37°32' E 025°08'4 7.5
2017-May-26 05:00N 37°30' E 025°12'713.1
2017-May-26 04:30N 37°28' E 025°20'0 0.0
2017-May-26 04:00N 37°28' E 025°20'0 0.0
2017-May-26 03:30N 37°28' E 025°20'0 0.0
2017-May-26 03:01N 37°28' E 025°20'0 0.0
2017-May-26 02:31N 37°28' E 025°20'0 0.0
2017-May-26 02:01N 37°28' E 025°20'0 0.0
2017-May-26 01:31N 37°28' E 025°20'0 0.0
2017-May-26 01:00N 37°28' E 025°20'0 0.0
2017-May-26 00:30N 37°28' E 025°20'0 0.0
2017-May-26 00:01N 37°28' E 025°20'0 0.0
2017-May-25 23:30N 37°28' E 025°20'0 0.0
2017-May-25 23:00N 37°28' E 025°20'0 0.0
2017-May-25 22:31N 37°28' E 025°20'0 0.0
2017-May-25 22:00N 37°28' E 025°20'0 0.0
2017-May-25 21:29N 37°28' E 025°20'0 0.0
2017-May-25 21:01N 37°28' E 025°20'0 0.0
2017-May-25 20:30N 37°28' E 025°20'0 0.0
2017-May-25 20:00N 37°28' E 025°20'0 0.0
2017-May-25 19:30N 37°28' E 025°20'4 8.3
2017-May-25 19:00N 37°29' E 025°15'510.2
2017-May-25 18:30N 37°32' E 025°09'714.6
2017-May-25 18:01N 37°36' E 025°02'1118.4
2017-May-25 17:25N 37°44' E 024°52'3114.5
2017-May-25 15:17N 37°57' E 024°16'518.7
2017-May-25 14:59N 37°59' E 024°10'8 1.3
2017-May-25 09:14N 38°01' E 024°01'417.6
2017-May-25 09:00N 38°01' E 024°06'1019.0
2017-May-25 08:30N 37°57' E 024°17'2914.5
2017-May-25 06:29N 37°45' E 024°51'919.6
2017-May-25 06:01N 37°38' E 024°59'1019.2
2017-May-25 05:30N 37°32' E 025°09'4 8.7
2017-May-25 05:00N 37°30' E 025°13'611.1
2017-May-25 04:30N 37°28' E 025°20'0 0.0
2017-May-25 04:00N 37°28' E 025°20'0 0.0
2017-May-25 03:30N 37°28' E 025°20'0 0.0
2017-May-25 03:00N 37°28' E 025°20'0 0.0
2017-May-25 02:30N 37°28' E 025°20'0 0.0
2017-May-25 02:00N 37°28' E 025°20'0 0.0
2017-May-25 01:30N 37°28' E 025°20'0 0.0
2017-May-25 01:00N 37°28' E 025°20'0 0.0
2017-May-25 00:30N 37°28' E 025°20'0 0.0
2017-May-25 00:00N 37°28' E 025°20'0 0.0
2017-May-24 23:30N 37°28' E 025°20'0 0.0
2017-May-24 23:00N 37°28' E 025°20'0 0.0
2017-May-24 22:30N 37°28' E 025°20'0 0.0
2017-May-24 22:00N 37°28' E 025°20'0 0.0
2017-May-24 21:30N 37°28' E 025°20'0 0.0
2017-May-24 21:00N 37°28' E 025°20'0 0.0
2017-May-24 20:30N 37°28' E 025°20'0 0.0
2017-May-24 20:00N 37°28' E 025°20'0 0.2
2017-May-24 19:30N 37°28' E 025°20'815.5
2017-May-24 19:00N 37°31' E 025°11'3 6.5
2017-May-24 18:30N 37°33' E 025°07'918.6
2017-May-24 18:00N 37°39' E 024°58'4514.9
2017-May-24 15:01N 37°60' E 024°08'117.8
2017-May-24 14:59N 37°60' E 024°08'6 1.0
2017-May-24 09:13N 38°01' E 024°01'315.5
2017-May-24 09:00N 38°00' E 024°05'1019.4
2017-May-24 08:30N 37°57' E 024°16'1019.0
2017-May-24 07:58N 37°54' E 024°28'2013.1
2017-May-24 06:28N 37°45' E 024°51'919.8
2017-May-24 06:00N 37°39' E 024°59'1019.4
2017-May-24 05:30N 37°32' E 025°08'3 6.3
2017-May-24 05:00N 37°31' E 025°11'714.1
2017-May-24 04:30N 37°28' E 025°20'0 0.0
2017-May-24 04:00N 37°28' E 025°20'0 0.0
2017-May-24 03:30N 37°28' E 025°20'0 0.0
2017-May-24 03:00N 37°28' E 025°20'0 0.0
2017-May-24 02:30N 37°28' E 025°20'0 0.0
2017-May-24 02:00N 37°28' E 025°20'0 0.0
2017-May-24 01:30N 37°28' E 025°20'0 0.0
2017-May-24 01:00N 37°28' E 025°20'0 0.0
2017-May-24 00:30N 37°28' E 025°20'0 0.0
2017-May-24 00:00N 37°28' E 025°20'0 0.0
2017-May-23 23:30N 37°28' E 025°20'0 0.0
2017-May-23 23:00N 37°28' E 025°20'0 0.0
2017-May-23 22:30N 37°28' E 025°20'0 0.0
2017-May-23 22:00N 37°28' E 025°20'0 0.0
2017-May-23 21:30N 37°28' E 025°20'0 0.0
2017-May-23 21:00N 37°28' E 025°20'0 0.0
2017-May-23 20:30N 37°28' E 025°20'0 0.0
2017-May-23 20:00N 37°28' E 025°20'0 0.6
2017-May-23 19:31N 37°28' E 025°19'917.8
2017-May-23 19:01N 37°32' E 025°09'1 1.6
2017-May-23 18:31N 37°32' E 025°08'918.6
2017-May-23 18:01N 37°38' E 024°59'4315.0
2017-May-23 15:08N 37°59' E 024°11'318.4
2017-May-23 14:59N 37°60' E 024°08'6 1.0
2017-May-23 09:13N 38°01' E 024°01'314.9
2017-May-23 09:00N 38°01' E 024°05'1018.9
2017-May-23 08:29N 37°57' E 024°17'3014.8
2017-May-23 06:29N 37°45' E 024°51'919.6
2017-May-23 06:00N 37°38' E 024°59'918.8
2017-May-23 05:31N 37°32' E 025°08'4 7.7
2017-May-23 05:00N 37°30' E 025°12'612.8
2017-May-23 04:31N 37°28' E 025°20'0 0.0
2017-May-23 04:01N 37°28' E 025°20'0 0.0
2017-May-23 03:31N 37°28' E 025°20'0 0.0
2017-May-23 03:01N 37°28' E 025°20'0 0.0
2017-May-23 02:30N 37°28' E 025°20'0 0.0
2017-May-23 02:01N 37°28' E 025°20'0 0.0
2017-May-23 01:30N 37°28' E 025°20'0 0.0
2017-May-23 01:01N 37°28' E 025°20'0 0.0
2017-May-23 00:31N 37°28' E 025°20'0 0.0
2017-May-23 00:01N 37°28' E 025°20'0 0.0
2017-May-22 23:30N 37°28' E 025°20'0 0.0
2017-May-22 23:01N 37°28' E 025°20'0 0.0
2017-May-22 22:31N 37°28' E 025°20'0 0.0
2017-May-22 22:01N 37°28' E 025°20'0 0.0
2017-May-22 21:31N 37°28' E 025°20'0 0.0
2017-May-22 21:00N 37°28' E 025°20'0 0.0
2017-May-22 20:31N 37°28' E 025°20'0 0.0
2017-May-22 20:00N 37°28' E 025°20'0 0.1
2017-May-22 19:30N 37°28' E 025°20'815.5
2017-May-22 19:00N 37°31' E 025°11'2 3.9
2017-May-22 18:31N 37°32' E 025°09'918.3
2017-May-22 18:01N 37°38' E 024°60'918.6
2017-May-22 17:30N 37°45' E 024°52'3714.9
2017-May-22 15:00N 37°60' E 024°08'6 1.1
2017-May-22 09:20N 38°01' E 024°01'515.8
2017-May-22 09:00N 37°60' E 024°07'1318.7
2017-May-22 08:17N 37°56' E 024°23'2413.8
2017-May-22 06:32N 37°45' E 024°51'019.1
2017-May-22 06:30N 37°45' E 024°51'1019.3
2017-May-22 06:00N 37°38' E 024°60'918.7
2017-May-22 05:31N 37°32' E 025°09'4 8.0
2017-May-22 05:00N 37°30' E 025°13'510.9
2017-May-22 04:30N 37°28' E 025°20'0 0.0
2017-May-22 04:00N 37°28' E 025°20'0 0.0
2017-May-22 03:30N 37°28' E 025°20'0 0.0
2017-May-22 03:00N 37°28' E 025°20'0 0.0
2017-May-22 02:30N 37°28' E 025°20'0 0.0
2017-May-22 02:00N 37°28' E 025°20'0 0.0
2017-May-22 01:30N 37°28' E 025°20'0 0.0
2017-May-22 01:00N 37°28' E 025°20'0 0.0
2017-May-22 00:30N 37°28' E 025°20'0 0.0
2017-May-22 00:00N 37°28' E 025°20'0 0.0
2017-May-21 23:30N 37°28' E 025°20'0 0.0
2017-May-21 23:00N 37°28' E 025°20'0 0.0
2017-May-21 22:30N 37°28' E 025°20'0 0.0
2017-May-21 22:00N 37°28' E 025°20'0 0.0
2017-May-21 21:30N 37°28' E 025°20'0 0.0
2017-May-21 21:00N 37°28' E 025°20'0 0.0
2017-May-21 20:30N 37°28' E 025°20'0 0.0
2017-May-21 20:00N 37°28' E 025°20'713.8
2017-May-21 19:31N 37°31' E 025°12'5 9.1
2017-May-21 19:01N 37°33' E 025°07'1019.1
2017-May-21 18:31N 37°39' E 024°58'4415.9
2017-May-21 15:44N 37°60' E 024°08'418.7
2017-May-21 15:30N 38°01' E 024°03'2 1.9
2017-May-21 14:33N 38°01' E 024°01'0 3.5
2017-May-21 14:31N 38°02' E 024°01'1918.5
2017-May-21 13:28N 37°55' E 024°24'2313.5
2017-May-21 11:44N 37°45' E 024°51'919.4
2017-May-21 11:15N 37°38' E 024°59'418.8
2017-May-21 11:00N 37°35' E 025°03'611.6
2017-May-21 10:30N 37°32' E 025°09'612.3
2017-May-21 10:00N 37°29' E 025°16'3 6.4
2017-May-21 09:30N 37°28' E 025°20'0 0.0
2017-May-21 09:00N 37°28' E 025°20'0 0.0
2017-May-21 08:30N 37°28' E 025°20'0 0.0
2017-May-21 08:00N 37°28' E 025°20'0 0.0
2017-May-21 07:30N 37°28' E 025°20'0 0.0
2017-May-21 07:00N 37°28' E 025°20'0 0.0
2017-May-21 06:30N 37°28' E 025°20'0 0.0
2017-May-21 06:00N 37°28' E 025°20'0 0.0
2017-May-21 05:30N 37°28' E 025°20'0 0.0
2017-May-21 05:00N 37°28' E 025°20'0 0.0
2017-May-21 04:30N 37°28' E 025°20'0 0.0
2017-May-21 04:00N 37°28' E 025°20'0 0.0
2017-May-21 03:30N 37°28' E 025°20'0 0.0
2017-May-21 03:00N 37°28' E 025°20'0 0.0
2017-May-21 02:30N 37°28' E 025°20'0 0.0
2017-May-21 02:00N 37°28' E 025°20'0 0.0
2017-May-21 01:30N 37°28' E 025°20'0 0.0
2017-May-21 01:00N 37°28' E 025°20'0 0.0
2017-May-21 00:30N 37°28' E 025°20'0 0.0
2017-May-21 00:00N 37°28' E 025°20'0 0.0
2017-May-20 23:30N 37°28' E 025°20'0 0.0
2017-May-20 23:00N 37°28' E 025°20'0 0.0
2017-May-20 22:30N 37°28' E 025°20'0 0.0
2017-May-20 22:00N 37°28' E 025°20'0 0.0
2017-May-20 21:30N 37°28' E 025°20'0 0.0
2017-May-20 21:00N 37°28' E 025°20'0 0.0
2017-May-20 20:30N 37°28' E 025°20'0 0.0
2017-May-20 20:00N 37°28' E 025°20'5 9.8
2017-May-20 19:31N 37°30' E 025°14'4 8.7
2017-May-20 19:01N 37°32' E 025°09'816.9
2017-May-20 18:30N 37°37' E 025°00'918.5
2017-May-20 18:00N 37°44' E 024°53'3915.3
2017-May-20 15:28N 37°60' E 024°07'5 3.3
2017-May-20 13:48N 38°01' E 024°01'515.8
2017-May-20 13:30N 38°00' E 024°06'918.9
2017-May-20 13:00N 37°57' E 024°18'2914.3
2017-May-20 10:59N 37°45' E 024°51'919.2
2017-May-20 10:31N 37°38' E 024°59'918.8
2017-May-20 10:01N 37°32' E 025°08'2 4.0
2017-May-20 09:31N 37°31' E 025°10'816.3
2017-May-20 09:00N 37°28' E 025°20'0 0.0
2017-May-20 08:30N 37°28' E 025°20'0 0.0
2017-May-20 08:00N 37°28' E 025°20'0 0.0
2017-May-20 07:30N 37°28' E 025°20'0 0.0
2017-May-20 07:00N 37°28' E 025°20'0 0.0
2017-May-20 06:30N 37°28' E 025°20'0 0.0
2017-May-20 05:58N 37°28' E 025°20'0 0.0
2017-May-20 05:28N 37°28' E 025°20'0 0.0
2017-May-20 04:58N 37°28' E 025°20'0 0.0
2017-May-20 04:28N 37°28' E 025°20'0 0.0
2017-May-20 03:58N 37°28' E 025°20'0 0.0
2017-May-20 03:28N 37°28' E 025°20'0 0.0
2017-May-20 02:58N 37°28' E 025°20'0 0.0
2017-May-20 02:28N 37°28' E 025°20'0 0.0
2017-May-20 01:58N 37°28' E 025°20'0 0.0
2017-May-20 01:28N 37°28' E 025°20'0 0.0
2017-May-20 00:58N 37°28' E 025°20'0 0.0
2017-May-20 00:28N 37°28' E 025°20'0 0.0
2017-May-19 23:58N 37°28' E 025°20'0 0.0
2017-May-19 23:28N 37°28' E 025°20'0 0.0
2017-May-19 22:58N 37°28' E 025°20'0 0.0
2017-May-19 22:28N 37°28' E 025°20'0 0.0
2017-May-19 21:58N 37°28' E 025°20'0 0.0
2017-May-19 21:28N 37°28' E 025°20'0 0.0
2017-May-19 20:58N 37°28' E 025°20'0 0.0
2017-May-19 20:28N 37°28' E 025°20'0 0.0
2017-May-19 19:58N 37°28' E 025°20'0 0.0
2017-May-19 19:28N 37°28' E 025°20'0 0.0
2017-May-19 18:58N 37°28' E 025°20'  
Track history (hours):
 
Tides and Currents Weather Stations Pressure Air Temp Water Temp Dewpoint Dewpoint Depression Visibility Wind Speed Wind Dir Waves Ship Positions

Theologos P .

Last reported at 2017-May-29 18:30 UTC. Time now 2017-May-29 18:54 UTC.
Position N 37°32' E 025°09'.

Length 118 m; draft 4.4 m.

Type: Passenger vessel. MMSI: 240521000.

Date/timePositionNaut miles runAvg speedWind from/ knotsBaromVisibWave heightAir tempDewpointWater temp
2017-May-29 18:30N 37°32' E 025°09'713.8
2017-May-29 18:00N 37°36' E 025°02'1118.4
2017-May-29 17:24N 37°44' E 024°52'3615.1
2017-May-29 15:02N 37°59' E 024°11'218.3
2017-May-29 14:57N 37°59' E 024°09'7 1.2
2017-May-29 09:17N 38°01' E 024°01'413.6
2017-May-29 09:00N 38°01' E 024°05'1019.1
2017-May-29 08:30N 37°57' E 024°17'2914.7
2017-May-29 06:30N 37°45' E 024°51'919.1
2017-May-29 06:00N 37°38' E 024°59'918.7
2017-May-29 05:30N 37°32' E 025°08'3 6.9
2017-May-29 05:00N 37°30' E 025°12'713.6
2017-May-29 04:30N 37°28' E 025°20'0 0.0
2017-May-29 04:00N 37°28' E 025°20'0 0.0
2017-May-29 03:30N 37°28' E 025°20'0 0.0
2017-May-29 03:00N 37°28' E 025°20'0 0.0
2017-May-29 02:30N 37°28' E 025°20'0 0.0
2017-May-29 02:00N 37°28' E 025°20'0 0.0
2017-May-29 01:30N 37°28' E 025°20'0 0.0
2017-May-29 01:00N 37°28' E 025°20'0 0.0
2017-May-29 00:30N 37°28' E 025°20'0 0.0
2017-May-29 00:00N 37°28' E 025°20'0 0.0
2017-May-28 23:30N 37°28' E 025°20'0 0.0
2017-May-28 23:00N 37°28' E 025°20'0 0.0
2017-May-28 22:30N 37°28' E 025°20'0 0.0
2017-May-28 22:00N 37°28' E 025°20'0 0.0
2017-May-28 21:30N 37°28' E 025°20'0 0.0
2017-May-28 21:00N 37°28' E 025°20'0 0.0
2017-May-28 20:30N 37°28' E 025°20'0 0.0
2017-May-28 20:00N 37°28' E 025°20'2 4.1
2017-May-28 19:31N 37°28' E 025°17'714.6
2017-May-28 19:00N 37°32' E 025°09'612.3
2017-May-28 18:31N 37°35' E 025°03'1118.7
2017-May-28 17:57N 37°43' E 024°53'3915.5
2017-May-28 15:25N 37°60' E 024°08'1 1.0
2017-May-28 14:00N 37°59' E 024°10'1219.2
2017-May-28 13:23N 37°56' E 024°24'2313.4
2017-May-28 11:38N 37°45' E 024°51'319.1
2017-May-28 11:30N 37°43' E 024°53'918.7
2017-May-28 11:01N 37°37' E 025°01'815.5
2017-May-28 10:30N 37°32' E 025°09'611.5
2017-May-28 10:01N 37°29' E 025°15'4 7.1
2017-May-28 09:30N 37°28' E 025°20'0 0.0
2017-May-28 09:00N 37°28' E 025°20'0 0.0
2017-May-28 08:30N 37°28' E 025°20'0 0.0
2017-May-28 08:00N 37°28' E 025°20'0 0.0
2017-May-28 07:30N 37°28' E 025°20'0 0.0
2017-May-28 07:00N 37°28' E 025°20'0 0.0
2017-May-28 06:30N 37°28' E 025°20'0 0.0
2017-May-28 06:00N 37°28' E 025°20'0 0.0
2017-May-28 05:30N 37°28' E 025°20'0 0.0
2017-May-28 05:00N 37°28' E 025°20'0 0.0
2017-May-28 04:30N 37°28' E 025°20'0 0.0
2017-May-28 04:00N 37°28' E 025°20'0 0.0
2017-May-28 03:30N 37°28' E 025°20'0 0.0
2017-May-28 03:00N 37°28' E 025°20'0 0.0
2017-May-28 02:30N 37°28' E 025°20'0 0.0
2017-May-28 02:00N 37°28' E 025°20'0 0.0
2017-May-28 01:30N 37°28' E 025°20'0 0.0
2017-May-28 01:00N 37°28' E 025°20'0 0.0
2017-May-28 00:30N 37°28' E 025°20'0 0.0
2017-May-28 00:00N 37°28' E 025°20'0 0.0
2017-May-27 23:30N 37°28' E 025°20'0 0.0
2017-May-27 23:00N 37°28' E 025°20'0 0.0
2017-May-27 22:30N 37°28' E 025°20'0 0.0
2017-May-27 22:00N 37°28' E 025°20'0 0.0
2017-May-27 21:30N 37°28' E 025°20'0 0.0
2017-May-27 21:00N 37°28' E 025°20'0 0.0
2017-May-27 20:30N 37°28' E 025°20'0 0.0
2017-May-27 20:00N 37°28' E 025°20'0 0.0
2017-May-27 19:30N 37°28' E 025°20'2 5.0
2017-May-27 19:01N 37°29' E 025°17'713.6
2017-May-27 18:30N 37°32' E 025°09'612.8
2017-May-27 18:00N 37°36' E 025°02'1018.9
2017-May-27 17:28N 37°43' E 024°53'3715.0
2017-May-27 15:00N 37°59' E 024°11'9 6.8
2017-May-27 13:43N 38°01' E 024°01'416.4
2017-May-27 13:30N 38°00' E 024°05'918.9
2017-May-27 13:00N 37°57' E 024°17'3014.2
2017-May-27 10:54N 37°45' E 024°51'919.0
2017-May-27 10:25N 37°38' E 024°59'818.8
2017-May-27 10:00N 37°33' E 025°06'4 7.8
2017-May-27 09:31N 37°31' E 025°10'816.0
2017-May-27 09:00N 37°28' E 025°20'0 0.0
2017-May-27 08:30N 37°28' E 025°20'0 0.0
2017-May-27 08:00N 37°28' E 025°20'0 0.0
2017-May-27 07:30N 37°28' E 025°20'0 0.0
2017-May-27 07:00N 37°28' E 025°20'0 0.0
2017-May-27 06:31N 37°28' E 025°20'0 0.0
2017-May-27 06:00N 37°28' E 025°20'0 0.0
2017-May-27 05:30N 37°28' E 025°20'0 0.0
2017-May-27 05:00N 37°28' E 025°20'0 0.0
2017-May-27 04:30N 37°28' E 025°20'0 0.0
2017-May-27 04:01N 37°28' E 025°20'0 0.0
2017-May-27 03:31N 37°28' E 025°20'0 0.0
2017-May-27 03:00N 37°28' E 025°20'0 0.0
2017-May-27 02:30N 37°28' E 025°20'0 0.0
2017-May-27 02:00N 37°28' E 025°20'0 0.0
2017-May-27 01:30N 37°28' E 025°20'0 0.0
2017-May-27 01:00N 37°28' E 025°20'0 0.0
2017-May-27 00:30N 37°28' E 025°20'0 0.0
2017-May-27 00:01N 37°28' E 025°20'0 0.0
2017-May-26 23:30N 37°28' E 025°20'0 0.0
2017-May-26 23:00N 37°28' E 025°20'0 0.0
2017-May-26 22:30N 37°28' E 025°20'0 0.0
2017-May-26 22:00N 37°28' E 025°20'0 0.0
2017-May-26 21:30N 37°28' E 025°20'0 0.0
2017-May-26 21:01N 37°28' E 025°20'0 0.0
2017-May-26 20:30N 37°28' E 025°20'0 0.0
2017-May-26 20:00N 37°28' E 025°20'0 0.0
2017-May-26 19:30N 37°28' E 025°20'3 6.2
2017-May-26 19:00N 37°29' E 025°16'612.4
2017-May-26 18:30N 37°32' E 025°09'713.9
2017-May-26 18:01N 37°36' E 025°02'1118.4
2017-May-26 17:23N 37°44' E 024°52'3815.2
2017-May-26 14:55N 37°60' E 024°09'5 0.8
2017-May-26 09:04N 38°01' E 024°03'119.3
2017-May-26 09:00N 38°01' E 024°04'1019.3
2017-May-26 08:29N 37°58' E 024°17'3014.6
2017-May-26 06:27N 37°45' E 024°51'919.8
2017-May-26 06:00N 37°39' E 024°59'1019.5
2017-May-26 05:30N 37°32' E 025°08'4 7.5
2017-May-26 05:00N 37°30' E 025°12'713.1
2017-May-26 04:30N 37°28' E 025°20'0 0.0
2017-May-26 04:00N 37°28' E 025°20'0 0.0
2017-May-26 03:30N 37°28' E 025°20'0 0.0
2017-May-26 03:01N 37°28' E 025°20'0 0.0
2017-May-26 02:31N 37°28' E 025°20'0 0.0
2017-May-26 02:01N 37°28' E 025°20'0 0.0
2017-May-26 01:31N 37°28' E 025°20'0 0.0
2017-May-26 01:00N 37°28' E 025°20'0 0.0
2017-May-26 00:30N 37°28' E 025°20'0 0.0
2017-May-26 00:01N 37°28' E 025°20'0 0.0
2017-May-25 23:30N 37°28' E 025°20'0 0.0
2017-May-25 23:00N 37°28' E 025°20'0 0.0
2017-May-25 22:31N 37°28' E 025°20'0 0.0
2017-May-25 22:00N 37°28' E 025°20'0 0.0
2017-May-25 21:29N 37°28' E 025°20'0 0.0
2017-May-25 21:01N 37°28' E 025°20'0 0.0
2017-May-25 20:30N 37°28' E 025°20'0 0.0
2017-May-25 20:00N 37°28' E 025°20'0 0.0
2017-May-25 19:30N 37°28' E 025°20'4 8.3
2017-May-25 19:00N 37°29' E 025°15'510.2
2017-May-25 18:30N 37°32' E 025°09'714.6
2017-May-25 18:01N 37°36' E 025°02'1118.4
2017-May-25 17:25N 37°44' E 024°52'3114.5
2017-May-25 15:17N 37°57' E 024°16'518.7
2017-May-25 14:59N 37°59' E 024°10'8 1.3
2017-May-25 09:14N 38°01' E 024°01'417.6
2017-May-25 09:00N 38°01' E 024°06'1019.0
2017-May-25 08:30N 37°57' E 024°17'2914.5
2017-May-25 06:29N 37°45' E 024°51'919.6
2017-May-25 06:01N 37°38' E 024°59'1019.2
2017-May-25 05:30N 37°32' E 025°09'4 8.7
2017-May-25 05:00N 37°30' E 025°13'611.1
2017-May-25 04:30N 37°28' E 025°20'0 0.0
2017-May-25 04:00N 37°28' E 025°20'0 0.0
2017-May-25 03:30N 37°28' E 025°20'0 0.0
2017-May-25 03:00N 37°28' E 025°20'0 0.0
2017-May-25 02:30N 37°28' E 025°20'0 0.0
2017-May-25 02:00N 37°28' E 025°20'0 0.0
2017-May-25 01:30N 37°28' E 025°20'0 0.0
2017-May-25 01:00N 37°28' E 025°20'0 0.0
2017-May-25 00:30N 37°28' E 025°20'0 0.0
2017-May-25 00:00N 37°28' E 025°20'0 0.0
2017-May-24 23:30N 37°28' E 025°20'0 0.0
2017-May-24 23:00N 37°28' E 025°20'0 0.0
2017-May-24 22:30N 37°28' E 025°20'0 0.0
2017-May-24 22:00N 37°28' E 025°20'0 0.0
2017-May-24 21:30N 37°28' E 025°20'0 0.0
2017-May-24 21:00N 37°28' E 025°20'0 0.0
2017-May-24 20:30N 37°28' E 025°20'0 0.0
2017-May-24 20:00N 37°28' E 025°20'0 0.2
2017-May-24 19:30N 37°28' E 025°20'815.5
2017-May-24 19:00N 37°31' E 025°11'3 6.5
2017-May-24 18:30N 37°33' E 025°07'918.6
2017-May-24 18:00N 37°39' E 024°58'4514.9
2017-May-24 15:01N 37°60' E 024°08'117.8
2017-May-24 14:59N 37°60' E 024°08'6 1.0
2017-May-24 09:13N 38°01' E 024°01'315.5
2017-May-24 09:00N 38°00' E 024°05'1019.4
2017-May-24 08:30N 37°57' E 024°16'1019.0
2017-May-24 07:58N 37°54' E 024°28'2013.1
2017-May-24 06:28N 37°45' E 024°51'919.8
2017-May-24 06:00N 37°39' E 024°59'1019.4
2017-May-24 05:30N 37°32' E 025°08'3 6.3
2017-May-24 05:00N 37°31' E 025°11'714.1
2017-May-24 04:30N 37°28' E 025°20'0 0.0
2017-May-24 04:00N 37°28' E 025°20'0 0.0
2017-May-24 03:30N 37°28' E 025°20'0 0.0
2017-May-24 03:00N 37°28' E 025°20'0 0.0
2017-May-24 02:30N 37°28' E 025°20'0 0.0
2017-May-24 02:00N 37°28' E 025°20'0 0.0
2017-May-24 01:30N 37°28' E 025°20'0 0.0
2017-May-24 01:00N 37°28' E 025°20'0 0.0
2017-May-24 00:30N 37°28' E 025°20'0 0.0
2017-May-24 00:00N 37°28' E 025°20'0 0.0
2017-May-23 23:30N 37°28' E 025°20'0 0.0
2017-May-23 23:00N 37°28' E 025°20'0 0.0
2017-May-23 22:30N 37°28' E 025°20'0 0.0
2017-May-23 22:00N 37°28' E 025°20'0 0.0
2017-May-23 21:30N 37°28' E 025°20'0 0.0
2017-May-23 21:00N 37°28' E 025°20'0 0.0
2017-May-23 20:30N 37°28' E 025°20'0 0.0
2017-May-23 20:00N 37°28' E 025°20'0 0.6
2017-May-23 19:31N 37°28' E 025°19'917.8
2017-May-23 19:01N 37°32' E 025°09'1 1.6
2017-May-23 18:31N 37°32' E 025°08'918.6
2017-May-23 18:01N 37°38' E 024°59'4315.0
2017-May-23 15:08N 37°59' E 024°11'318.4
2017-May-23 14:59N 37°60' E 024°08'6 1.0
2017-May-23 09:13N 38°01' E 024°01'314.9
2017-May-23 09:00N 38°01' E 024°05'1018.9
2017-May-23 08:29N 37°57' E 024°17'3014.8
2017-May-23 06:29N 37°45' E 024°51'919.6
2017-May-23 06:00N 37°38' E 024°59'918.8
2017-May-23 05:31N 37°32' E 025°08'4 7.7
2017-May-23 05:00N 37°30' E 025°12'612.8
2017-May-23 04:31N 37°28' E 025°20'0 0.0
2017-May-23 04:01N 37°28' E 025°20'0 0.0
2017-May-23 03:31N 37°28' E 025°20'0 0.0
2017-May-23 03:01N 37°28' E 025°20'0 0.0
2017-May-23 02:30N 37°28' E 025°20'0 0.0
2017-May-23 02:01N 37°28' E 025°20'0 0.0
2017-May-23 01:30N 37°28' E 025°20'0 0.0
2017-May-23 01:01N 37°28' E 025°20'0 0.0
2017-May-23 00:31N 37°28' E 025°20'0 0.0
2017-May-23 00:01N 37°28' E 025°20'0 0.0
2017-May-22 23:30N 37°28' E 025°20'0 0.0
2017-May-22 23:01N 37°28' E 025°20'0 0.0
2017-May-22 22:31N 37°28' E 025°20'0 0.0
2017-May-22 22:01N 37°28' E 025°20'0 0.0
2017-May-22 21:31N 37°28' E 025°20'0 0.0
2017-May-22 21:00N 37°28' E 025°20'0 0.0
2017-May-22 20:31N 37°28' E 025°20'0 0.0
2017-May-22 20:00N 37°28' E 025°20'0 0.1
2017-May-22 19:30N 37°28' E 025°20'815.5
2017-May-22 19:00N 37°31' E 025°11'2 3.9
2017-May-22 18:31N 37°32' E 025°09'918.3
2017-May-22 18:01N 37°38' E 024°60'918.6
2017-May-22 17:30N 37°45' E 024°52'3714.9
2017-May-22 15:00N 37°60' E 024°08'6 1.1
2017-May-22 09:20N 38°01' E 024°01'515.8
2017-May-22 09:00N 37°60' E 024°07'1318.7
2017-May-22 08:17N 37°56' E 024°23'2413.8
2017-May-22 06:32N 37°45' E 024°51'019.1
2017-May-22 06:30N 37°45' E 024°51'1019.3
2017-May-22 06:00N 37°38' E 024°60'918.7
2017-May-22 05:31N 37°32' E 025°09'4 8.0
2017-May-22 05:00N 37°30' E 025°13'510.9
2017-May-22 04:30N 37°28' E 025°20'0 0.0
2017-May-22 04:00N 37°28' E 025°20'0 0.0
2017-May-22 03:30N 37°28' E 025°20'0 0.0
2017-May-22 03:00N 37°28' E 025°20'0 0.0
2017-May-22 02:30N 37°28' E 025°20'0 0.0
2017-May-22 02:00N 37°28' E 025°20'0 0.0
2017-May-22 01:30N 37°28' E 025°20'0 0.0
2017-May-22 01:00N 37°28' E 025°20'0 0.0
2017-May-22 00:30N 37°28' E 025°20'0 0.0
2017-May-22 00:00N 37°28' E 025°20'0 0.0
2017-May-21 23:30N 37°28' E 025°20'0 0.0
2017-May-21 23:00N 37°28' E 025°20'0 0.0
2017-May-21 22:30N 37°28' E 025°20'0 0.0
2017-May-21 22:00N 37°28' E 025°20'0 0.0
2017-May-21 21:30N 37°28' E 025°20'0 0.0
2017-May-21 21:00N 37°28' E 025°20'0 0.0
2017-May-21 20:30N 37°28' E 025°20'0 0.0
2017-May-21 20:00N 37°28' E 025°20'713.8
2017-May-21 19:31N 37°31' E 025°12'5 9.1
2017-May-21 19:01N 37°33' E 025°07'1019.1
2017-May-21 18:31N 37°39' E 024°58'4415.9
2017-May-21 15:44N 37°60' E 024°08'418.7
2017-May-21 15:30N 38°01' E 024°03'2 1.9
2017-May-21 14:33N 38°01' E 024°01'0 3.5
2017-May-21 14:31N 38°02' E 024°01'1918.5
2017-May-21 13:28N 37°55' E 024°24'2313.5
2017-May-21 11:44N 37°45' E 024°51'919.4
2017-May-21 11:15N 37°38' E 024°59'418.8
2017-May-21 11:00N 37°35' E 025°03'611.6
2017-May-21 10:30N 37°32' E 025°09'612.3
2017-May-21 10:00N 37°29' E 025°16'3 6.4
2017-May-21 09:30N 37°28' E 025°20'0 0.0
2017-May-21 09:00N 37°28' E 025°20'0 0.0
2017-May-21 08:30N 37°28' E 025°20'0 0.0
2017-May-21 08:00N 37°28' E 025°20'0 0.0
2017-May-21 07:30N 37°28' E 025°20'0 0.0
2017-May-21 07:00N 37°28' E 025°20'0 0.0
2017-May-21 06:30N 37°28' E 025°20'0 0.0
2017-May-21 06:00N 37°28' E 025°20'0 0.0
2017-May-21 05:30N 37°28' E 025°20'0 0.0
2017-May-21 05:00N 37°28' E 025°20'0 0.0
2017-May-21 04:30N 37°28' E 025°20'0 0.0
2017-May-21 04:00N 37°28' E 025°20'0 0.0
2017-May-21 03:30N 37°28' E 025°20'0 0.0
2017-May-21 03:00N 37°28' E 025°20'0 0.0
2017-May-21 02:30N 37°28' E 025°20'0 0.0
2017-May-21 02:00N 37°28' E 025°20'0 0.0
2017-May-21 01:30N 37°28' E 025°20'0 0.0
2017-May-21 01:00N 37°28' E 025°20'0 0.0
2017-May-21 00:30N 37°28' E 025°20'0 0.0
2017-May-21 00:00N 37°28' E 025°20'0 0.0
2017-May-20 23:30N 37°28' E 025°20'0 0.0
2017-May-20 23:00N 37°28' E 025°20'0 0.0
2017-May-20 22:30N 37°28' E 025°20'0 0.0
2017-May-20 22:00N 37°28' E 025°20'0 0.0
2017-May-20 21:30N 37°28' E 025°20'0 0.0
2017-May-20 21:00N 37°28' E 025°20'0 0.0
2017-May-20 20:30N 37°28' E 025°20'0 0.0
2017-May-20 20:00N 37°28' E 025°20'5 9.8
2017-May-20 19:31N 37°30' E 025°14'4 8.7
2017-May-20 19:01N 37°32' E 025°09'816.9
2017-May-20 18:30N 37°37' E 025°00'918.5
2017-May-20 18:00N 37°44' E 024°53'3915.3
2017-May-20 15:28N 37°60' E 024°07'5 3.3
2017-May-20 13:48N 38°01' E 024°01'515.8
2017-May-20 13:30N 38°00' E 024°06'918.9
2017-May-20 13:00N 37°57' E 024°18'2914.3
2017-May-20 10:59N 37°45' E 024°51'919.2
2017-May-20 10:31N 37°38' E 024°59'918.8
2017-May-20 10:01N 37°32' E 025°08'2 4.0
2017-May-20 09:31N 37°31' E 025°10'816.3
2017-May-20 09:00N 37°28' E 025°20'0 0.0
2017-May-20 08:30N 37°28' E 025°20'0 0.0
2017-May-20 08:00N 37°28' E 025°20'0 0.0
2017-May-20 07:30N 37°28' E 025°20'0 0.0
2017-May-20 07:00N 37°28' E 025°20'0 0.0
2017-May-20 06:30N 37°28' E 025°20'0 0.0
2017-May-20 05:58N 37°28' E 025°20'0 0.0
2017-May-20 05:28N 37°28' E 025°20'0 0.0
2017-May-20 04:58N 37°28' E 025°20'0 0.0
2017-May-20 04:28N 37°28' E 025°20'0 0.0
2017-May-20 03:58N 37°28' E 025°20'0 0.0
2017-May-20 03:28N 37°28' E 025°20'0 0.0
2017-May-20 02:58N 37°28' E 025°20'0 0.0
2017-May-20 02:28N 37°28' E 025°20'0 0.0
2017-May-20 01:58N 37°28' E 025°20'0 0.0
2017-May-20 01:28N 37°28' E 025°20'0 0.0
2017-May-20 00:58N 37°28' E 025°20'0 0.0
2017-May-20 00:28N 37°28' E 025°20'0 0.0
2017-May-19 23:58N 37°28' E 025°20'0 0.0
2017-May-19 23:28N 37°28' E 025°20'0 0.0
2017-May-19 22:58N 37°28' E 025°20'0 0.0
2017-May-19 22:28N 37°28' E 025°20'0 0.0
2017-May-19 21:58N 37°28' E 025°20'0 0.0
2017-May-19 21:28N 37°28' E 025°20'0 0.0
2017-May-19 20:58N 37°28' E 025°20'0 0.0
2017-May-19 20:28N 37°28' E 025°20'0 0.0
2017-May-19 19:58N 37°28' E 025°20'0 0.0
2017-May-19 19:28N 37°28' E 025°20'0 0.0
2017-May-19 18:58N 37°28' E 025°20'  

Dump ship's entire track history